sensor_id;sensor_type;location;lat;lon;timestamp;pressure;altitude;pressure_sealevel;temperature;humidity
12360;BME280;6244;51.460;7.090;2023-05-23T00:04:53;100685.47;;;18.09;65.58
12360;BME280;6244;51.460;7.090;2023-05-23T00:09:52;100683.28;;;18.14;65.30
12360;BME280;6244;51.460;7.090;2023-05-23T00:14:49;100693.53;;;17.75;66.49
12360;BME280;6244;51.460;7.090;2023-05-23T00:19:47;100702.56;;;17.73;65.80
12360;BME280;6244;51.460;7.090;2023-05-23T00:24:45;100709.81;;;17.37;65.78
12360;BME280;6244;51.460;7.090;2023-05-23T00:29:41;100705.91;;;17.08;67.52
12360;BME280;6244;51.460;7.090;2023-05-23T00:34:38;100720.53;;;17.24;66.21
12360;BME280;6244;51.460;7.090;2023-05-23T00:39:35;100711.25;;;17.30;66.15
12360;BME280;6244;51.460;7.090;2023-05-23T00:44:32;100721.47;;;17.23;65.73
12360;BME280;6244;51.460;7.090;2023-05-23T00:49:29;100719.34;;;17.40;66.33
12360;BME280;6244;51.460;7.090;2023-05-23T00:54:28;100726.56;;;17.26;65.99
12360;BME280;6244;51.460;7.090;2023-05-23T00:59:25;100735.59;;;17.13;67.01
12360;BME280;6244;51.460;7.090;2023-05-23T01:04:24;100732.34;;;17.20;66.85
12360;BME280;6244;51.460;7.090;2023-05-23T01:09:23;100731.97;;;17.36;65.86
12360;BME280;6244;51.460;7.090;2023-05-23T01:14:23;100729.22;;;17.26;65.91
12360;BME280;6244;51.460;7.090;2023-05-23T01:25:04;100716.56;;;17.52;65.38
12360;BME280;6244;51.460;7.090;2023-05-23T01:30:07;100729.81;;;17.64;64.92
12360;BME280;6244;51.460;7.090;2023-05-23T01:35:06;100716.56;;;17.64;64.67
12360;BME280;6244;51.460;7.090;2023-05-23T01:40:03;100722.13;;;17.38;65.05
12360;BME280;6244;51.460;7.090;2023-05-23T01:45:00;100733.16;;;17.10;66.74
12360;BME280;6244;51.460;7.090;2023-05-23T01:49:58;100738.03;;;16.81;66.79
12360;BME280;6244;51.460;7.090;2023-05-23T01:54:56;100738.31;;;16.89;67.20
12360;BME280;6244;51.460;7.090;2023-05-23T01:59:53;100733.16;;;17.10;66.65
12360;BME280;6244;51.460;7.090;2023-05-23T02:04:49;100731.34;;;17.10;66.93
12360;BME280;6244;51.460;7.090;2023-05-23T02:09:49;100741.28;;;17.30;66.46
12360;BME280;6244;51.460;7.090;2023-05-23T02:14:46;100745.47;;;16.99;67.15
12360;BME280;6244;51.460;7.090;2023-05-23T02:19:42;100750.59;;;16.90;67.96
12360;BME280;6244;51.460;7.090;2023-05-23T02:24:39;100740.16;;;16.99;67.55
12360;BME280;6244;51.460;7.090;2023-05-23T02:29:37;100740.63;;;17.05;67.28
12360;BME280;6244;51.460;7.090;2023-05-23T02:34:33;100744.75;;;17.20;67.11
12360;BME280;6244;51.460;7.090;2023-05-23T02:39:30;100746.09;;;17.25;66.70
12360;BME280;6244;51.460;7.090;2023-05-23T02:44:26;100744.88;;;17.29;66.18
12360;BME280;6244;51.460;7.090;2023-05-23T02:49:24;100752.69;;;17.20;66.80
12360;BME280;6244;51.460;7.090;2023-05-23T02:54:20;100762.81;;;17.03;66.63
12360;BME280;6244;51.460;7.090;2023-05-23T02:59:17;100763.34;;;16.85;67.29
12360;BME280;6244;51.460;7.090;2023-05-23T03:04:14;100765.03;;;16.86;67.13
12360;BME280;6244;51.460;7.090;2023-05-23T03:09:13;100760.88;;;17.06;66.74
12360;BME280;6244;51.460;7.090;2023-05-23T03:14:11;100764.91;;;16.76;67.09
12360;BME280;6244;51.460;7.090;2023-05-23T03:19:07;100764.88;;;16.04;69.80
12360;BME280;6244;51.460;7.090;2023-05-23T03:24:04;100771.47;;;16.23;69.31
12360;BME280;6244;51.460;7.090;2023-05-23T03:29:02;100777.63;;;16.47;67.76
12360;BME280;6244;51.460;7.090;2023-05-23T03:33:58;100784.44;;;16.62;67.43
12360;BME280;6244;51.460;7.090;2023-05-23T03:38:55;100782.00;;;16.35;68.42
12360;BME280;6244;51.460;7.090;2023-05-23T03:43:51;100792.41;;;16.38;68.07
12360;BME280;6244;51.460;7.090;2023-05-23T03:48:49;100791.50;;;16.51;67.89
12360;BME280;6244;51.460;7.090;2023-05-23T03:53:46;100798.91;;;16.45;67.61
12360;BME280;6244;51.460;7.090;2023-05-23T03:58:42;100803.97;;;16.49;68.53
12360;BME280;6244;51.460;7.090;2023-05-23T04:03:39;100814.59;;;16.49;68.30
12360;BME280;6244;51.460;7.090;2023-05-23T04:08:37;100823.38;;;16.49;69.61
12360;BME280;6244;51.460;7.090;2023-05-23T04:13:36;100812.63;;;16.63;69.31
12360;BME280;6244;51.460;7.090;2023-05-23T04:18:32;100822.25;;;16.40;69.10
12360;BME280;6244;51.460;7.090;2023-05-23T04:23:30;100827.94;;;16.47;69.26
12360;BME280;6244;51.460;7.090;2023-05-23T04:28:28;100824.94;;;16.28;69.45
12360;BME280;6244;51.460;7.090;2023-05-23T04:33:24;100828.84;;;16.35;69.35
12360;BME280;6244;51.460;7.090;2023-05-23T04:38:22;100831.72;;;16.56;68.31
12360;BME280;6244;51.460;7.090;2023-05-23T04:43:19;100832.09;;;16.51;68.67
12360;BME280;6244;51.460;7.090;2023-05-23T04:48:17;100836.72;;;16.48;69.15
12360;BME280;6244;51.460;7.090;2023-05-23T04:53:15;100832.34;;;16.59;68.43
12360;BME280;6244;51.460;7.090;2023-05-23T04:58:12;100840.53;;;16.56;68.58
12360;BME280;6244;51.460;7.090;2023-05-23T05:03:08;100843.84;;;16.47;68.78
12360;BME280;6244;51.460;7.090;2023-05-23T05:08:07;100842.78;;;16.13;69.01
12360;BME280;6244;51.460;7.090;2023-05-23T05:13:04;100851.25;;;16.18;69.78
12360;BME280;6244;51.460;7.090;2023-05-23T05:18:00;100857.91;;;16.11;69.89
12360;BME280;6244;51.460;7.090;2023-05-23T05:22:57;100863.72;;;16.29;69.44
12360;BME280;6244;51.460;7.090;2023-05-23T05:27:54;100863.00;;;16.14;70.24
12360;BME280;6244;51.460;7.090;2023-05-23T05:32:51;100869.75;;;16.31;69.88
12360;BME280;6244;51.460;7.090;2023-05-23T05:37:47;100886.06;;;16.12;69.49
12360;BME280;6244;51.460;7.090;2023-05-23T05:42:44;100882.28;;;16.03;70.05
12360;BME280;6244;51.460;7.090;2023-05-23T05:47:42;100881.97;;;16.08;70.17
12360;BME280;6244;51.460;7.090;2023-05-23T05:52:39;100894.34;;;16.07;69.52
12360;BME280;6244;51.460;7.090;2023-05-23T05:57:36;100896.28;;;15.93;70.39
12360;BME280;6244;51.460;7.090;2023-05-23T06:02:33;100897.00;;;15.95;70.32
12360;BME280;6244;51.460;7.090;2023-05-23T06:07:32;100894.34;;;16.20;69.48
12360;BME280;6244;51.460;7.090;2023-05-23T06:12:28;100891.53;;;16.34;68.81
12360;BME280;6244;51.460;7.090;2023-05-23T06:17:25;100891.34;;;16.37;68.73
12360;BME280;6244;51.460;7.090;2023-05-23T06:22:22;100895.69;;;16.38;67.74
12360;BME280;6244;51.460;7.090;2023-05-23T06:27:20;100897.53;;;16.25;67.73
12360;BME280;6244;51.460;7.090;2023-05-23T06:32:16;100903.88;;;16.10;68.18
12360;BME280;6244;51.460;7.090;2023-05-23T06:37:13;100923.16;;;16.25;67.85
12360;BME280;6244;51.460;7.090;2023-05-23T06:42:09;100920.94;;;16.06;67.81
12360;BME280;6244;51.460;7.090;2023-05-23T06:47:07;100934.16;;;16.06;67.21
12360;BME280;6244;51.460;7.090;2023-05-23T06:52:04;100936.19;;;16.02;67.21
12360;BME280;6244;51.460;7.090;2023-05-23T06:57:02;100935.34;;;15.89;67.86
12360;BME280;6244;51.460;7.090;2023-05-23T07:01:59;100939.00;;;15.74;67.50
12360;BME280;6244;51.460;7.090;2023-05-23T07:06:56;100947.28;;;15.82;67.30
12360;BME280;6244;51.460;7.090;2023-05-23T07:11:53;100954.38;;;15.94;66.93
12360;BME280;6244;51.460;7.090;2023-05-23T07:16:50;100951.13;;;16.03;66.36
12360;BME280;6244;51.460;7.090;2023-05-23T07:21:47;100960.41;;;15.83;67.41
12360;BME280;6244;51.460;7.090;2023-05-23T07:26:44;100968.13;;;15.74;67.78
12360;BME280;6244;51.460;7.090;2023-05-23T07:31:41;100964.84;;;15.83;67.46
12360;BME280;6244;51.460;7.090;2023-05-23T07:36:37;100984.63;;;15.65;67.82
12360;BME280;6244;51.460;7.090;2023-05-23T07:41:35;100984.69;;;15.50;68.08
12360;BME280;6244;51.460;7.090;2023-05-23T07:46:33;100982.31;;;15.73;67.82
12360;BME280;6244;51.460;7.090;2023-05-23T07:51:29;100994.78;;;15.71;67.76
12360;BME280;6244;51.460;7.090;2023-05-23T07:56:26;101009.56;;;15.88;66.56
12360;BME280;6244;51.460;7.090;2023-05-23T08:01:23;101005.53;;;15.95;66.72
12360;BME280;6244;51.460;7.090;2023-05-23T08:06:21;101009.88;;;16.08;65.77
12360;BME280;6244;51.460;7.090;2023-05-23T08:11:18;101005.31;;;15.98;66.37
12360;BME280;6244;51.460;7.090;2023-05-23T08:16:14;101005.44;;;16.09;65.76
12360;BME280;6244;51.460;7.090;2023-05-23T08:21:11;101021.84;;;16.14;65.97
12360;BME280;6244;51.460;7.090;2023-05-23T08:26:09;101032.19;;;15.92;66.73
12360;BME280;6244;51.460;7.090;2023-05-23T08:31:05;101038.22;;;15.81;66.66
12360;BME280;6244;51.460;7.090;2023-05-23T08:36:02;101037.81;;;15.60;66.81
12360;BME280;6244;51.460;7.090;2023-05-23T08:41:00;101047.06;;;15.40;67.95
12360;BME280;6244;51.460;7.090;2023-05-23T08:45:58;101048.91;;;15.25;67.64
12360;BME280;6244;51.460;7.090;2023-05-23T08:50:56;101050.59;;;15.26;67.80
12360;BME280;6244;51.460;7.090;2023-05-23T08:55:53;101057.94;;;15.21;67.51
12360;BME280;6244;51.460;7.090;2023-05-23T09:00:53;101068.56;;;15.07;68.75
12360;BME280;6244;51.460;7.090;2023-05-23T09:05:53;101078.66;;;15.15;68.27
12360;BME280;6244;51.460;7.090;2023-05-23T09:10:49;101080.72;;;15.10;68.57
12360;BME280;6244;51.460;7.090;2023-05-23T09:15:59;101098.78;;;14.89;69.23
12360;BME280;6244;51.460;7.090;2023-05-23T10:07:51;101115.97;;;15.51;63.99
12360;BME280;6244;51.460;7.090;2023-05-23T10:18:43;101128.41;;;14.94;64.75
12360;BME280;6244;51.460;7.090;2023-05-23T10:23:41;101134.34;;;14.97;64.55
12360;BME280;6244;51.460;7.090;2023-05-23T10:28:40;101135.38;;;14.95;63.65
12360;BME280;6244;51.460;7.090;2023-05-23T10:33:41;101142.66;;;15.06;62.92
12360;BME280;6244;51.460;7.090;2023-05-23T10:38:45;101148.97;;;15.17;60.96
12360;BME280;6244;51.460;7.090;2023-05-23T10:43:49;101139.09;;;15.48;60.52
12360;BME280;6244;51.460;7.090;2023-05-23T10:48:53;101137.44;;;15.88;59.38
12360;BME280;6244;51.460;7.090;2023-05-23T10:53:53;101143.38;;;16.44;57.71
12360;BME280;6244;51.460;7.090;2023-05-23T10:58:53;101149.53;;;16.44;56.38
12360;BME280;6244;51.460;7.090;2023-05-23T11:03:52;101146.97;;;16.43;57.15
12360;BME280;6244;51.460;7.090;2023-05-23T11:09:02;101136.72;;;16.38;56.64
12360;BME280;6244;51.460;7.090;2023-05-23T11:13:59;101151.31;;;16.31;57.09
12360;BME280;6244;51.460;7.090;2023-05-23T11:19:24;101152.38;;;16.29;55.96
12360;BME280;6244;51.460;7.090;2023-05-23T11:24:23;101155.16;;;16.00;55.75
12360;BME280;6244;51.460;7.090;2023-05-23T11:29:40;101146.91;;;16.05;55.27
12360;BME280;6244;51.460;7.090;2023-05-23T11:34:37;101153.53;;;16.77;55.32
12360;BME280;6244;51.460;7.090;2023-05-23T11:39:34;101159.78;;;16.89;52.86
12360;BME280;6244;51.460;7.090;2023-05-23T11:44:31;101155.56;;;16.47;54.43
12360;BME280;6244;51.460;7.090;2023-05-23T11:49:28;101162.59;;;16.21;55.34
12360;BME280;6244;51.460;7.090;2023-05-23T11:54:25;101162.09;;;15.89;57.03
12360;BME280;6244;51.460;7.090;2023-05-23T11:59:25;101170.53;;;15.81;56.91
12360;BME280;6244;51.460;7.090;2023-05-23T12:04:24;101169.03;;;16.04;56.35
12360;BME280;6244;51.460;7.090;2023-05-23T12:09:21;101168.47;;;16.78;54.18
12360;BME280;6244;51.460;7.090;2023-05-23T12:14:18;101168.13;;;17.57;54.00
12360;BME280;6244;51.460;7.090;2023-05-23T12:19:16;101171.25;;;18.12;47.83
12360;BME280;6244;51.460;7.090;2023-05-23T12:24:14;101164.69;;;18.05;48.90
12360;BME280;6244;51.460;7.090;2023-05-23T12:29:11;101168.13;;;17.94;49.26
12360;BME280;6244;51.460;7.090;2023-05-23T12:34:10;101167.66;;;17.89;49.14
12360;BME280;6244;51.460;7.090;2023-05-23T12:39:08;101159.72;;;17.76;49.69
12360;BME280;6244;51.460;7.090;2023-05-23T12:44:04;101167.34;;;17.81;50.01
12360;BME280;6244;51.460;7.090;2023-05-23T12:49:01;101158.25;;;17.72;49.00
12360;BME280;6244;51.460;7.090;2023-05-23T12:53:57;101161.59;;;17.87;49.77
12360;BME280;6244;51.460;7.090;2023-05-23T12:58:55;101162.47;;;18.23;48.06
12360;BME280;6244;51.460;7.090;2023-05-23T13:03:52;101154.56;;;18.10;45.43
12360;BME280;6244;51.460;7.090;2023-05-23T13:08:48;101160.09;;;18.31;45.51
12360;BME280;6244;51.460;7.090;2023-05-23T13:13:45;101156.44;;;18.20;44.91
12360;BME280;6244;51.460;7.090;2023-05-23T13:18:43;101150.28;;;17.96;45.34
12360;BME280;6244;51.460;7.090;2023-05-23T13:23:40;101149.16;;;18.11;47.33
12360;BME280;6244;51.460;7.090;2023-05-23T13:28:36;101159.31;;;17.94;45.09
12360;BME280;6244;51.460;7.090;2023-05-23T13:33:33;101154.59;;;17.86;45.00
12360;BME280;6244;51.460;7.090;2023-05-23T13:38:31;101154.06;;;17.81;44.71
12360;BME280;6244;51.460;7.090;2023-05-23T13:43:27;101161.75;;;17.97;43.66
12360;BME280;6244;51.460;7.090;2023-05-23T13:48:24;101151.38;;;17.94;44.25
12360;BME280;6244;51.460;7.090;2023-05-23T13:53:20;101154.97;;;17.93;45.00
12360;BME280;6244;51.460;7.090;2023-05-23T13:58:18;101159.56;;;17.90;44.54
12360;BME280;6244;51.460;7.090;2023-05-23T14:03:14;101154.25;;;17.90;44.75
12360;BME280;6244;51.460;7.090;2023-05-23T14:08:13;101148.69;;;17.70;45.22
12360;BME280;6244;51.460;7.090;2023-05-23T14:13:09;101143.94;;;17.62;45.35
12360;BME280;6244;51.460;7.090;2023-05-23T14:18:08;101140.50;;;17.73;43.14
12360;BME280;6244;51.460;7.090;2023-05-23T14:23:04;101146.78;;;17.96;45.01
12360;BME280;6244;51.460;7.090;2023-05-23T14:28:01;101155.50;;;17.74;44.10
12360;BME280;6244;51.460;7.090;2023-05-23T14:32:57;101145.94;;;17.71;43.36
12360;BME280;6244;51.460;7.090;2023-05-23T14:37:55;101154.47;;;17.87;42.46
12360;BME280;6244;51.460;7.090;2023-05-23T14:42:52;101159.94;;;17.97;42.25
12360;BME280;6244;51.460;7.090;2023-05-23T14:47:48;101148.41;;;17.85;42.65
12360;BME280;6244;51.460;7.090;2023-05-23T14:52:45;101157.34;;;17.84;43.23
12360;BME280;6244;51.460;7.090;2023-05-23T14:57:43;101156.25;;;17.63;42.76
12360;BME280;6244;51.460;7.090;2023-05-23T15:02:40;101149.97;;;17.77;41.62
12360;BME280;6244;51.460;7.090;2023-05-23T15:07:36;101152.41;;;17.30;42.40
12360;BME280;6244;51.460;7.090;2023-05-23T15:12:33;101144.81;;;17.13;44.02
12360;BME280;6244;51.460;7.090;2023-05-23T15:17:32;101147.53;;;17.24;41.97
12360;BME280;6244;51.460;7.090;2023-05-23T15:22:28;101155.41;;;17.13;43.94
12360;BME280;6244;51.460;7.090;2023-05-23T15:27:25;101147.88;;;16.94;43.41
12360;BME280;6244;51.460;7.090;2023-05-23T15:32:21;101155.44;;;16.75;43.53
12360;BME280;6244;51.460;7.090;2023-05-23T15:37:19;101150.97;;;16.76;44.29
12360;BME280;6244;51.460;7.090;2023-05-23T15:42:16;101148.63;;;16.71;43.28
12360;BME280;6244;51.460;7.090;2023-05-23T15:47:12;101150.53;;;16.69;44.60
12360;BME280;6244;51.460;7.090;2023-05-23T15:52:09;101155.78;;;16.56;44.25
12360;BME280;6244;51.460;7.090;2023-05-23T15:57:07;101153.66;;;17.38;42.66
12360;BME280;6244;51.460;7.090;2023-05-23T16:02:04;101162.16;;;17.79;40.65
12360;BME280;6244;51.460;7.090;2023-05-23T16:07:00;101160.59;;;17.77;42.49
12360;BME280;6244;51.460;7.090;2023-05-23T16:11:57;101159.00;;;17.74;42.33
12360;BME280;6244;51.460;7.090;2023-05-23T16:16:55;101155.81;;;17.93;42.36
12360;BME280;6244;51.460;7.090;2023-05-23T16:21:51;101144.94;;;18.20;39.75
12360;BME280;6244;51.460;7.090;2023-05-23T16:26:48;101153.31;;;18.27;39.89
12360;BME280;6244;51.460;7.090;2023-05-23T16:31:44;101156.91;;;18.49;40.05
12360;BME280;6244;51.460;7.090;2023-05-23T16:36:42;101145.41;;;18.49;38.52
12360;BME280;6244;51.460;7.090;2023-05-23T16:41:38;101155.03;;;18.04;38.87
12360;BME280;6244;51.460;7.090;2023-05-23T16:46:35;101158.94;;;17.87;40.34
12360;BME280;6244;51.460;7.090;2023-05-23T16:51:31;101157.06;;;17.76;40.09
12360;BME280;6244;51.460;7.090;2023-05-23T16:56:29;101157.09;;;18.00;40.49
12360;BME280;6244;51.460;7.090;2023-05-23T17:01:28;101159.63;;;18.02;38.80
12360;BME280;6244;51.460;7.090;2023-05-23T17:06:24;101173.19;;;17.73;40.29
12360;BME280;6244;51.460;7.090;2023-05-23T17:11:21;101167.81;;;17.62;41.90
12360;BME280;6244;51.460;7.090;2023-05-23T17:16:18;101161.00;;;17.71;41.03
12360;BME280;6244;51.460;7.090;2023-05-23T17:21:15;101164.81;;;17.67;40.00
12360;BME280;6244;51.460;7.090;2023-05-23T17:26:12;101161.03;;;17.58;41.85
12360;BME280;6244;51.460;7.090;2023-05-23T17:31:08;101166.94;;;17.38;41.83
12360;BME280;6244;51.460;7.090;2023-05-23T17:36:07;101173.00;;;17.27;41.97
12360;BME280;6244;51.460;7.090;2023-05-23T17:41:04;101175.22;;;17.08;40.97
12360;BME280;6244;51.460;7.090;2023-05-23T17:46:00;101175.13;;;17.09;41.05
12360;BME280;6244;51.460;7.090;2023-05-23T17:50:57;101175.78;;;16.87;42.04
12360;BME280;6244;51.460;7.090;2023-05-23T17:55:55;101175.78;;;16.75;41.90
12360;BME280;6244;51.460;7.090;2023-05-23T18:00:51;101183.91;;;16.71;41.02
12360;BME280;6244;51.460;7.090;2023-05-23T18:05:48;101176.47;;;16.64;40.92
12360;BME280;6244;51.460;7.090;2023-05-23T18:10:45;101186.31;;;16.62;42.14
12360;BME280;6244;51.460;7.090;2023-05-23T18:15:43;101191.09;;;16.57;42.29
12360;BME280;6244;51.460;7.090;2023-05-23T18:20:39;101193.78;;;16.69;42.39
12360;BME280;6244;51.460;7.090;2023-05-23T18:25:36;101196.06;;;16.61;42.35
12360;BME280;6244;51.460;7.090;2023-05-23T18:30:32;101191.50;;;16.51;41.76
12360;BME280;6244;51.460;7.090;2023-05-23T18:35:30;101187.88;;;16.39;41.40
12360;BME280;6244;51.460;7.090;2023-05-23T18:40:27;101193.31;;;16.23;40.95
12360;BME280;6244;51.460;7.090;2023-05-23T18:45:23;101198.47;;;16.12;41.27
12360;BME280;6244;51.460;7.090;2023-05-23T18:50:20;101203.13;;;16.08;42.73
12360;BME280;6244;51.460;7.090;2023-05-23T18:55:18;101211.81;;;16.10;41.30
12360;BME280;6244;51.460;7.090;2023-05-23T19:00:15;101226.69;;;15.99;42.36
12360;BME280;6244;51.460;7.090;2023-05-23T19:05:12;101237.22;;;15.86;43.25
12360;BME280;6244;51.460;7.090;2023-05-23T19:10:09;101243.19;;;15.90;43.70
12360;BME280;6244;51.460;7.090;2023-05-23T19:15:08;101251.97;;;15.90;44.03
12360;BME280;6244;51.460;7.090;2023-05-23T19:20:06;101250.38;;;15.88;43.37
12360;BME280;6244;51.460;7.090;2023-05-23T19:25:04;101260.22;;;15.71;43.96
12360;BME280;6244;51.460;7.090;2023-05-23T19:30:01;101265.03;;;15.79;44.30
12360;BME280;6244;51.460;7.090;2023-05-23T19:34:59;101273.75;;;15.67;44.25
12360;BME280;6244;51.460;7.090;2023-05-23T19:39:57;101273.34;;;15.58;43.99
12360;BME280;6244;51.460;7.090;2023-05-23T19:44:53;101271.00;;;15.40;43.89
12360;BME280;6244;51.460;7.090;2023-05-23T19:49:50;101271.72;;;15.13;43.80
12360;BME280;6244;51.460;7.090;2023-05-23T19:54:48;101276.72;;;15.04;44.63
12360;BME280;6244;51.460;7.090;2023-05-23T19:59:45;101278.97;;;15.10;44.48
12360;BME280;6244;51.460;7.090;2023-05-23T20:04:41;101299.00;;;15.14;43.45
12360;BME280;6244;51.460;7.090;2023-05-23T20:09:38;101312.50;;;14.79;43.81
12360;BME280;6244;51.460;7.090;2023-05-23T20:14:36;101313.31;;;14.65;44.39
12360;BME280;6244;51.460;7.090;2023-05-23T20:19:32;101313.88;;;14.71;46.13
12360;BME280;6244;51.460;7.090;2023-05-23T20:24:29;101328.31;;;14.65;43.80
12360;BME280;6244;51.460;7.090;2023-05-23T20:29:26;101330.16;;;14.63;43.93
12360;BME280;6244;51.460;7.090;2023-05-23T20:34:24;101340.56;;;14.50;43.34
12360;BME280;6244;51.460;7.090;2023-05-23T20:39:20;101357.31;;;14.33;43.76
12360;BME280;6244;51.460;7.090;2023-05-23T20:44:18;101349.31;;;14.35;44.37
12360;BME280;6244;51.460;7.090;2023-05-23T20:49:14;101350.38;;;14.48;44.34
12360;BME280;6244;51.460;7.090;2023-05-23T20:54:13;101354.72;;;14.49;44.54
12360;BME280;6244;51.460;7.090;2023-05-23T20:59:10;101360.78;;;14.51;43.54
12360;BME280;6244;51.460;7.090;2023-05-23T21:04:06;101360.00;;;14.49;44.69
12360;BME280;6244;51.460;7.090;2023-05-23T21:09:04;101359.56;;;14.41;44.00
12360;BME280;6244;51.460;7.090;2023-05-23T21:14:04;101367.44;;;14.25;44.13
12360;BME280;6244;51.460;7.090;2023-05-23T21:19:06;101367.13;;;14.16;44.52
12360;BME280;6244;51.460;7.090;2023-05-23T21:24:03;101374.09;;;14.17;45.04
12360;BME280;6244;51.460;7.090;2023-05-23T21:29:00;101379.19;;;14.04;45.17
12360;BME280;6244;51.460;7.090;2023-05-23T21:33:58;101374.00;;;14.02;45.46
12360;BME280;6244;51.460;7.090;2023-05-23T21:38:55;101384.88;;;13.96;45.89
12360;BME280;6244;51.460;7.090;2023-05-23T21:43:51;101387.78;;;13.92;45.42
12360;BME280;6244;51.460;7.090;2023-05-23T21:48:48;101371.69;;;13.96;45.17
12360;BME280;6244;51.460;7.090;2023-05-23T21:53:46;101366.81;;;13.89;45.92
12360;BME280;6244;51.460;7.090;2023-05-23T21:58:42;101358.03;;;13.88;45.95
12360;BME280;6244;51.460;7.090;2023-05-23T22:03:39;101360.47;;;13.75;45.80
12360;BME280;6244;51.460;7.090;2023-05-23T22:08:36;101365.00;;;13.73;46.02
12360;BME280;6244;51.460;7.090;2023-05-23T22:13:34;101371.19;;;13.72;46.60
12360;BME280;6244;51.460;7.090;2023-05-23T22:18:31;101372.31;;;13.68;47.03
12360;BME280;6244;51.460;7.090;2023-05-23T22:23:29;101373.22;;;13.67;47.23
12360;BME280;6244;51.460;7.090;2023-05-23T22:28:26;101369.97;;;13.62;47.68
12360;BME280;6244;51.460;7.090;2023-05-23T22:33:24;101365.34;;;13.50;47.68
12360;BME280;6244;51.460;7.090;2023-05-23T22:38:20;101363.63;;;13.49;47.88
12360;BME280;6244;51.460;7.090;2023-05-23T22:43:17;101361.84;;;13.49;47.58
12360;BME280;6244;51.460;7.090;2023-05-23T22:48:15;101364.13;;;13.40;47.77
12360;BME280;6244;51.460;7.090;2023-05-23T22:53:14;101363.50;;;13.35;48.32
12360;BME280;6244;51.460;7.090;2023-05-23T22:58:11;101369.94;;;13.29;48.62
12360;BME280;6244;51.460;7.090;2023-05-23T23:03:08;101369.59;;;13.18;49.20
12360;BME280;6244;51.460;7.090;2023-05-23T23:08:04;101363.47;;;13.17;49.59
12360;BME280;6244;51.460;7.090;2023-05-23T23:13:02;101367.03;;;13.16;49.57
12360;BME280;6244;51.460;7.090;2023-05-23T23:17:59;101376.25;;;13.08;49.97
12360;BME280;6244;51.460;7.090;2023-05-23T23:22:55;101376.50;;;13.03;49.90
12360;BME280;6244;51.460;7.090;2023-05-23T23:27:52;101387.09;;;13.02;49.66
12360;BME280;6244;51.460;7.090;2023-05-23T23:32:50;101379.41;;;12.97;50.41
12360;BME280;6244;51.460;7.090;2023-05-23T23:37:47;101380.44;;;12.94;50.21
12360;BME280;6244;51.460;7.090;2023-05-23T23:42:43;101383.81;;;12.79;50.91
12360;BME280;6244;51.460;7.090;2023-05-23T23:47:40;101391.41;;;12.85;50.91
12360;BME280;6244;51.460;7.090;2023-05-23T23:52:38;101385.13;;;12.88;50.50
12360;BME280;6244;51.460;7.090;2023-05-23T23:57:34;101390.03;;;12.78;51.01
